sensor_id;sensor_type;location;lat;lon;timestamp;pressure;altitude;pressure_sealevel;temperature;humidity
71938;BME280;59810;48.800;9.086;2023-05-21T00:00:46;97275.63;;;15.64;83.32
71938;BME280;59810;48.800;9.086;2023-05-21T00:03:12;97268.88;;;15.56;84.22
71938;BME280;59810;48.800;9.086;2023-05-21T00:05:42;97275.59;;;15.40;85.39
71938;BME280;59810;48.800;9.086;2023-05-21T00:08:09;97281.78;;;15.46;84.98
71938;BME280;59810;48.800;9.086;2023-05-21T00:10:35;97273.03;;;15.49;84.63
71938;BME280;59810;48.800;9.086;2023-05-21T00:13:00;97262.75;;;15.46;84.51
71938;BME280;59810;48.800;9.086;2023-05-21T00:15:26;97260.59;;;15.43;84.37
71938;BME280;59810;48.800;9.086;2023-05-21T00:17:53;97267.16;;;15.42;84.94
71938;BME280;59810;48.800;9.086;2023-05-21T00:20:19;97265.31;;;15.37;85.15
71938;BME280;59810;48.800;9.086;2023-05-21T00:22:44;97257.72;;;15.34;85.20
71938;BME280;59810;48.800;9.086;2023-05-21T00:25:10;97252.28;;;15.34;85.29
71938;BME280;59810;48.800;9.086;2023-05-21T00:27:36;97251.34;;;15.20;86.68
71938;BME280;59810;48.800;9.086;2023-05-21T00:30:02;97254.91;;;15.15;86.96
71938;BME280;59810;48.800;9.086;2023-05-21T00:32:28;97256.53;;;15.16;86.58
71938;BME280;59810;48.800;9.086;2023-05-21T00:34:53;97250.00;;;15.17;86.20
71938;BME280;59810;48.800;9.086;2023-05-21T00:37:19;97252.50;;;15.14;86.62
71938;BME280;59810;48.800;9.086;2023-05-21T00:39:45;97246.19;;;15.18;86.56
71938;BME280;59810;48.800;9.086;2023-05-21T00:42:11;97244.56;;;15.17;86.23
71938;BME280;59810;48.800;9.086;2023-05-21T00:44:37;97235.59;;;15.17;86.57
71938;BME280;59810;48.800;9.086;2023-05-21T00:47:03;97234.25;;;15.14;87.04
71938;BME280;59810;48.800;9.086;2023-05-21T00:49:29;97230.44;;;15.15;86.97
71938;BME280;59810;48.800;9.086;2023-05-21T00:51:55;97228.38;;;15.07;87.10
71938;BME280;59810;48.800;9.086;2023-05-21T00:54:22;97235.84;;;14.91;88.82
71938;BME280;59810;48.800;9.086;2023-05-21T00:56:48;97231.56;;;14.85;89.15
71938;BME280;59810;48.800;9.086;2023-05-21T00:59:17;97222.31;;;14.86;89.13
71938;BME280;59810;48.800;9.086;2023-05-21T01:01:43;97225.38;;;14.80;89.43
71938;BME280;59810;48.800;9.086;2023-05-21T01:04:10;97229.72;;;14.81;89.34
71938;BME280;59810;48.800;9.086;2023-05-21T01:06:36;97222.13;;;14.78;89.95
71938;BME280;59810;48.800;9.086;2023-05-21T01:09:02;97230.75;;;14.85;89.35
71938;BME280;59810;48.800;9.086;2023-05-21T01:11:46;97229.59;;;14.91;88.91
71938;BME280;59810;48.800;9.086;2023-05-21T01:14:14;97218.72;;;14.91;88.79
71938;BME280;59810;48.800;9.086;2023-05-21T01:16:41;97227.94;;;14.95;87.99
71938;BME280;59810;48.800;9.086;2023-05-21T01:19:09;97229.84;;;14.94;87.92
71938;BME280;59810;48.800;9.086;2023-05-21T01:21:44;97220.31;;;14.97;87.74
71938;BME280;59810;48.800;9.086;2023-05-21T01:24:10;97217.06;;;14.95;87.81
71938;BME280;59810;48.800;9.086;2023-05-21T01:26:37;97220.59;;;14.95;87.61
71938;BME280;59810;48.800;9.086;2023-05-21T01:29:07;97212.19;;;14.97;87.63
71938;BME280;59810;48.800;9.086;2023-05-21T01:34:44;97213.78;;;14.98;87.40
71938;BME280;59810;48.800;9.086;2023-05-21T01:40:02;97208.38;;;14.93;87.84
71938;BME280;59810;48.800;9.086;2023-05-21T01:42:30;97216.66;;;14.83;88.43
71938;BME280;59810;48.800;9.086;2023-05-21T01:44:58;97212.84;;;14.84;88.61
71938;BME280;59810;48.800;9.086;2023-05-21T01:47:26;97206.06;;;14.81;88.29
71938;BME280;59810;48.800;9.086;2023-05-21T01:49:53;97211.78;;;14.80;87.74
71938;BME280;59810;48.800;9.086;2023-05-21T01:52:19;97211.28;;;14.78;88.52
71938;BME280;59810;48.800;9.086;2023-05-21T01:54:44;97208.56;;;14.78;88.52
71938;BME280;59810;48.800;9.086;2023-05-21T01:57:10;97211.97;;;14.59;89.65
71938;BME280;59810;48.800;9.086;2023-05-21T01:59:36;97204.34;;;14.61;89.38
71938;BME280;59810;48.800;9.086;2023-05-21T02:02:03;97201.91;;;14.60;89.50
71938;BME280;59810;48.800;9.086;2023-05-21T02:04:29;97205.03;;;14.48;90.01
71938;BME280;59810;48.800;9.086;2023-05-21T02:06:55;97211.09;;;14.35;91.18
71938;BME280;59810;48.800;9.086;2023-05-21T02:09:21;97206.25;;;14.27;91.95
71938;BME280;59810;48.800;9.086;2023-05-21T02:11:46;97208.94;;;14.32;91.52
71938;BME280;59810;48.800;9.086;2023-05-21T02:14:11;97194.78;;;14.35;91.18
71938;BME280;59810;48.800;9.086;2023-05-21T02:16:38;97210.59;;;14.28;91.81
71938;BME280;59810;48.800;9.086;2023-05-21T02:19:06;97206.53;;;14.25;92.14
71938;BME280;59810;48.800;9.086;2023-05-21T02:21:34;97197.81;;;14.28;91.53
71938;BME280;59810;48.800;9.086;2023-05-21T02:24:00;97200.56;;;14.23;91.83
71938;BME280;59810;48.800;9.086;2023-05-21T02:26:25;97200.28;;;14.25;91.50
71938;BME280;59810;48.800;9.086;2023-05-21T02:28:51;97195.44;;;14.22;92.01
71938;BME280;59810;48.800;9.086;2023-05-21T02:31:19;97196.00;;;14.19;92.16
71938;BME280;59810;48.800;9.086;2023-05-21T02:33:44;97198.00;;;14.08;92.79
71938;BME280;59810;48.800;9.086;2023-05-21T02:36:10;97203.19;;;14.05;92.84
71938;BME280;59810;48.800;9.086;2023-05-21T02:38:40;97196.69;;;13.95;94.61
71938;BME280;59810;48.800;9.086;2023-05-21T02:41:09;97194.78;;;14.01;93.54
71938;BME280;59810;48.800;9.086;2023-05-21T02:43:35;97189.59;;;14.05;93.06
71938;BME280;59810;48.800;9.086;2023-05-21T02:46:00;97190.16;;;14.01;92.89
71938;BME280;59810;48.800;9.086;2023-05-21T02:48:25;97194.59;;;13.87;94.44
71938;BME280;59810;48.800;9.086;2023-05-21T02:50:53;97186.25;;;13.79;95.36
71938;BME280;59810;48.800;9.086;2023-05-21T02:53:18;97183.56;;;13.74;95.46
71938;BME280;59810;48.800;9.086;2023-05-21T02:55:43;97190.63;;;13.75;95.40
71938;BME280;59810;48.800;9.086;2023-05-21T02:58:09;97190.63;;;13.75;94.73
71938;BME280;59810;48.800;9.086;2023-05-21T03:00:37;97194.19;;;13.65;95.49
71938;BME280;59810;48.800;9.086;2023-05-21T03:03:05;97189.84;;;13.64;95.98
71938;BME280;59810;48.800;9.086;2023-05-21T03:05:31;97180.09;;;13.68;95.04
71938;BME280;59810;48.800;9.086;2023-05-21T03:07:56;97181.22;;;13.57;95.60
71938;BME280;59810;48.800;9.086;2023-05-21T03:10:21;97180.44;;;13.51;96.76
71938;BME280;59810;48.800;9.086;2023-05-21T03:12:47;97185.81;;;13.56;96.25
71938;BME280;59810;48.800;9.086;2023-05-21T03:15:12;97185.78;;;13.61;96.32
71938;BME280;59810;48.800;9.086;2023-05-21T03:17:43;97181.22;;;13.57;96.38
71938;BME280;59810;48.800;9.086;2023-05-21T03:20:09;97171.94;;;13.63;95.99
71938;BME280;59810;48.800;9.086;2023-05-21T03:22:41;97171.94;;;13.68;95.77
71938;BME280;59810;48.800;9.086;2023-05-21T03:25:06;97170.03;;;13.68;95.03
71938;BME280;59810;48.800;9.086;2023-05-21T03:27:32;97181.47;;;13.60;96.35
71938;BME280;59810;48.800;9.086;2023-05-21T03:29:57;97182.25;;;13.66;96.05
71938;BME280;59810;48.800;9.086;2023-05-21T03:32:23;97171.66;;;13.69;95.66
71938;BME280;59810;48.800;9.086;2023-05-21T03:34:49;97171.66;;;13.64;95.72
71938;BME280;59810;48.800;9.086;2023-05-21T03:37:17;97180.41;;;13.56;96.55
71938;BME280;59810;48.800;9.086;2023-05-21T03:39:42;97174.13;;;13.61;96.56
71938;BME280;59810;48.800;9.086;2023-05-21T03:42:07;97168.94;;;13.64;96.44
71938;BME280;59810;48.800;9.086;2023-05-21T03:44:38;97168.69;;;13.66;95.94
71938;BME280;59810;48.800;9.086;2023-05-21T03:47:03;97173.06;;;13.57;96.82
71938;BME280;59810;48.800;9.086;2023-05-21T03:49:29;97179.00;;;13.64;96.76
71938;BME280;59810;48.800;9.086;2023-05-21T03:51:54;97180.59;;;13.70;96.07
71938;BME280;59810;48.800;9.086;2023-05-21T03:54:19;97170.53;;;13.76;95.27
71938;BME280;59810;48.800;9.086;2023-05-21T03:56:45;97181.38;;;13.76;95.44
71938;BME280;59810;48.800;9.086;2023-05-21T03:59:10;97183.31;;;13.70;95.24
71938;BME280;59810;48.800;9.086;2023-05-21T04:01:36;97184.66;;;13.73;95.47
71938;BME280;59810;48.800;9.086;2023-05-21T04:04:03;97176.78;;;13.76;95.31
71938;BME280;59810;48.800;9.086;2023-05-21T04:06:28;97189.25;;;13.77;94.75
71938;BME280;59810;48.800;9.086;2023-05-21T04:08:54;97198.22;;;13.73;95.48
71938;BME280;59810;48.800;9.086;2023-05-21T04:11:19;97200.13;;;13.72;95.92
71938;BME280;59810;48.800;9.086;2023-05-21T04:13:45;97193.03;;;13.76;95.59
71938;BME280;59810;48.800;9.086;2023-05-21T04:16:12;97201.22;;;13.71;95.73
71938;BME280;59810;48.800;9.086;2023-05-21T04:18:39;97200.41;;;13.70;96.26
71938;BME280;59810;48.800;9.086;2023-05-21T04:21:05;97205.00;;;13.75;96.09
71938;BME280;59810;48.800;9.086;2023-05-21T04:23:31;97202.25;;;13.80;95.63
71938;BME280;59810;48.800;9.086;2023-05-21T04:25:59;97203.81;;;13.86;94.98
71938;BME280;59810;48.800;9.086;2023-05-21T04:28:25;97201.16;;;13.81;95.03
71938;BME280;59810;48.800;9.086;2023-05-21T04:30:53;97203.31;;;13.84;95.31
71938;BME280;59810;48.800;9.086;2023-05-21T04:33:20;97204.91;;;13.85;95.01
71938;BME280;59810;48.800;9.086;2023-05-21T04:35:46;97214.13;;;13.89;95.12
71938;BME280;59810;48.800;9.086;2023-05-21T04:38:14;97214.09;;;13.94;94.83
71938;BME280;59810;48.800;9.086;2023-05-21T04:40:44;97217.88;;;13.93;94.94
71938;BME280;59810;48.800;9.086;2023-05-21T04:43:09;97227.09;;;13.97;94.79
71938;BME280;59810;48.800;9.086;2023-05-21T04:45:36;97217.03;;;13.98;94.72
71938;BME280;59810;48.800;9.086;2023-05-21T04:48:02;97218.41;;;14.00;94.87
71938;BME280;59810;48.800;9.086;2023-05-21T04:50:27;97219.75;;;14.03;94.63
71938;BME280;59810;48.800;9.086;2023-05-21T04:52:55;97221.63;;;14.08;93.98
71938;BME280;59810;48.800;9.086;2023-05-21T04:55:23;97220.56;;;14.04;94.26
71938;BME280;59810;48.800;9.086;2023-05-21T04:57:49;97226.22;;;14.07;94.98
71938;BME280;59810;48.800;9.086;2023-05-21T05:00:15;97227.03;;;14.08;94.00
71938;BME280;59810;48.800;9.086;2023-05-21T05:02:40;97229.75;;;14.08;94.25
71938;BME280;59810;48.800;9.086;2023-05-21T05:05:06;97223.47;;;14.12;93.79
71938;BME280;59810;48.800;9.086;2023-05-21T05:07:31;97221.53;;;14.18;93.38
71938;BME280;59810;48.800;9.086;2023-05-21T05:09:56;97230.19;;;14.20;93.31
71938;BME280;59810;48.800;9.086;2023-05-21T05:12:22;97228.81;;;14.22;92.68
71938;BME280;59810;48.800;9.086;2023-05-21T05:14:53;97228.25;;;14.25;92.63
71938;BME280;59810;48.800;9.086;2023-05-21T05:17:18;97223.88;;;14.29;92.38
71938;BME280;59810;48.800;9.086;2023-05-21T05:19:44;97226.34;;;14.31;91.95
71938;BME280;59810;48.800;9.086;2023-05-21T05:22:09;97225.75;;;14.34;92.17
71938;BME280;59810;48.800;9.086;2023-05-21T05:24:34;97225.47;;;14.36;92.33
71938;BME280;59810;48.800;9.086;2023-05-21T05:27:00;97226.53;;;14.40;92.19
71938;BME280;59810;48.800;9.086;2023-05-21T05:29:25;97226.81;;;14.43;91.82
71938;BME280;59810;48.800;9.086;2023-05-21T05:31:51;97222.41;;;14.47;91.75
71938;BME280;59810;48.800;9.086;2023-05-21T05:34:16;97214.50;;;14.51;91.31
71938;BME280;59810;48.800;9.086;2023-05-21T05:36:41;97220.19;;;14.54;91.17
71938;BME280;59810;48.800;9.086;2023-05-21T05:39:07;97217.41;;;14.59;90.88
71938;BME280;59810;48.800;9.086;2023-05-21T05:41:32;97213.59;;;14.60;91.02
71938;BME280;59810;48.800;9.086;2023-05-21T05:43:58;97212.22;;;14.63;91.01
71938;BME280;59810;48.800;9.086;2023-05-21T05:46:23;97221.19;;;14.63;91.02
71938;BME280;59810;48.800;9.086;2023-05-21T05:48:48;97217.66;;;14.63;91.32
71938;BME280;59810;48.800;9.086;2023-05-21T05:51:14;97223.91;;;14.63;91.47
71938;BME280;59810;48.800;9.086;2023-05-21T05:53:41;97225.56;;;14.59;91.34
71938;BME280;59810;48.800;9.086;2023-05-21T05:56:06;97228.84;;;14.56;90.95
71938;BME280;59810;48.800;9.086;2023-05-21T05:58:32;97227.44;;;14.64;90.92
71938;BME280;59810;48.800;9.086;2023-05-21T06:00:57;97229.91;;;14.60;90.66
71938;BME280;59810;48.800;9.086;2023-05-21T06:03:22;97225.28;;;14.61;90.71
71938;BME280;59810;48.800;9.086;2023-05-21T06:05:50;97229.94;;;14.55;90.23
71938;BME280;59810;48.800;9.086;2023-05-21T06:08:15;97235.84;;;14.62;89.56
71938;BME280;59810;48.800;9.086;2023-05-21T06:10:41;97238.56;;;14.68;89.15
71938;BME280;59810;48.800;9.086;2023-05-21T06:13:06;97229.31;;;14.69;89.38
71938;BME280;59810;48.800;9.086;2023-05-21T06:15:32;97226.09;;;14.61;90.23
71938;BME280;59810;48.800;9.086;2023-05-21T06:17:57;97236.41;;;14.65;90.30
71938;BME280;59810;48.800;9.086;2023-05-21T06:20:23;97232.78;;;14.74;89.29
71938;BME280;59810;48.800;9.086;2023-05-21T06:22:48;97231.41;;;14.77;89.56
71938;BME280;59810;48.800;9.086;2023-05-21T06:25:15;97232.72;;;14.79;88.90
71938;BME280;59810;48.800;9.086;2023-05-21T06:27:42;97231.34;;;14.82;88.74
71938;BME280;59810;48.800;9.086;2023-05-21T06:30:07;97227.81;;;14.81;89.33
71938;BME280;59810;48.800;9.086;2023-05-21T06:32:33;97228.56;;;14.87;88.82
71938;BME280;59810;48.800;9.086;2023-05-21T06:34:58;97229.38;;;14.87;89.60
71938;BME280;59810;48.800;9.086;2023-05-21T06:37:23;97226.38;;;14.89;89.43
71938;BME280;59810;48.800;9.086;2023-05-21T06:39:49;97238.56;;;14.97;88.45
71938;BME280;59810;48.800;9.086;2023-05-21T06:42:14;97231.66;;;15.04;87.81
71938;BME280;59810;48.800;9.086;2023-05-21T06:44:40;97235.19;;;15.05;88.57
71938;BME280;59810;48.800;9.086;2023-05-21T06:47:05;97233.22;;;15.10;88.11
71938;BME280;59810;48.800;9.086;2023-05-21T06:49:31;97228.31;;;15.12;87.80
71938;BME280;59810;48.800;9.086;2023-05-21T06:51:56;97234.78;;;15.16;86.97
71938;BME280;59810;48.800;9.086;2023-05-21T06:54:22;97233.91;;;15.21;87.22
71938;BME280;59810;48.800;9.086;2023-05-21T06:56:50;97242.00;;;15.26;87.18
71938;BME280;59810;48.800;9.086;2023-05-21T06:59:15;97231.41;;;15.24;87.69
71938;BME280;59810;48.800;9.086;2023-05-21T07:01:41;97235.75;;;15.25;87.93
71938;BME280;59810;48.800;9.086;2023-05-21T07:04:07;97238.97;;;15.33;87.91
71938;BME280;59810;48.800;9.086;2023-05-21T07:06:35;97240.00;;;15.37;86.90
71938;BME280;59810;48.800;9.086;2023-05-21T07:09:01;97242.72;;;15.37;87.38
71938;BME280;59810;48.800;9.086;2023-05-21T07:11:27;97238.31;;;15.41;87.04
71938;BME280;59810;48.800;9.086;2023-05-21T07:13:55;97239.13;;;15.41;87.24
71938;BME280;59810;48.800;9.086;2023-05-21T07:16:20;97237.22;;;15.42;86.55
71938;BME280;59810;48.800;9.086;2023-05-21T07:18:46;97242.38;;;15.43;86.90
71938;BME280;59810;48.800;9.086;2023-05-21T07:21:11;97238.19;;;15.51;86.75
71938;BME280;59810;48.800;9.086;2023-05-21T07:23:36;97240.03;;;15.55;86.01
71938;BME280;59810;48.800;9.086;2023-05-21T07:26:02;97244.63;;;15.60;86.74
71938;BME280;59810;48.800;9.086;2023-05-21T07:28:27;97247.81;;;15.67;86.07
71938;BME280;59810;48.800;9.086;2023-05-21T07:30:53;97243.41;;;15.71;85.44
71938;BME280;59810;48.800;9.086;2023-05-21T07:33:20;97247.69;;;15.77;85.22
71938;BME280;59810;48.800;9.086;2023-05-21T07:35:47;97248.13;;;15.84;86.13
71938;BME280;59810;48.800;9.086;2023-05-21T07:38:12;97239.84;;;15.95;84.74
71938;BME280;59810;48.800;9.086;2023-05-21T07:40:38;97243.06;;;15.97;83.71
71938;BME280;59810;48.800;9.086;2023-05-21T07:43:03;97237.56;;;16.02;83.12
71938;BME280;59810;48.800;9.086;2023-05-21T07:45:28;97243.06;;;16.15;82.21
71938;BME280;59810;48.800;9.086;2023-05-21T07:47:56;97237.75;;;16.24;82.58
71938;BME280;59810;48.800;9.086;2023-05-21T07:50:21;97224.28;;;16.33;82.26
71938;BME280;59810;48.800;9.086;2023-05-21T07:52:47;97232.66;;;16.36;82.16
71938;BME280;59810;48.800;9.086;2023-05-21T07:55:15;97231.28;;;16.39;82.16
71938;BME280;59810;48.800;9.086;2023-05-21T07:57:40;97234.00;;;16.39;81.09
71938;BME280;59810;48.800;9.086;2023-05-21T08:00:06;97230.47;;;16.38;81.22
71938;BME280;59810;48.800;9.086;2023-05-21T08:02:33;97230.16;;;16.40;80.50
71938;BME280;59810;48.800;9.086;2023-05-21T08:04:59;97227.56;;;16.48;81.42
71938;BME280;59810;48.800;9.086;2023-05-21T08:07:25;97231.22;;;16.58;80.00
71938;BME280;59810;48.800;9.086;2023-05-21T08:09:51;97226.16;;;16.70;78.06
71938;BME280;59810;48.800;9.086;2023-05-21T08:12:18;97233.53;;;16.83;77.41
71938;BME280;59810;48.800;9.086;2023-05-21T08:14:43;97229.25;;;16.96;76.44
71938;BME280;59810;48.800;9.086;2023-05-21T08:17:09;97225.09;;;17.12;77.00
71938;BME280;59810;48.800;9.086;2023-05-21T08:19:35;97231.16;;;17.23;75.44
71938;BME280;59810;48.800;9.086;2023-05-21T08:22:01;97228.66;;;17.26;73.84
71938;BME280;59810;48.800;9.086;2023-05-21T08:24:27;97229.47;;;17.40;74.48
71938;BME280;59810;48.800;9.086;2023-05-21T08:26:52;97230.66;;;17.48;71.87
71938;BME280;59810;48.800;9.086;2023-05-21T08:29:18;97239.19;;;17.60;73.01
71938;BME280;59810;48.800;9.086;2023-05-21T08:31:43;97229.19;;;17.69;72.16
71938;BME280;59810;48.800;9.086;2023-05-21T08:34:08;97235.09;;;17.85;72.57
71938;BME280;59810;48.800;9.086;2023-05-21T08:36:34;97233.66;;;18.01;72.91
71938;BME280;59810;48.800;9.086;2023-05-21T08:39:00;97238.72;;;18.08;71.57
71938;BME280;59810;48.800;9.086;2023-05-21T08:41:26;97244.34;;;18.25;71.34
71938;BME280;59810;48.800;9.086;2023-05-21T08:43:56;97236.63;;;18.27;69.88
71938;BME280;59810;48.800;9.086;2023-05-21T08:46:22;97238.13;;;18.33;69.88
71938;BME280;59810;48.800;9.086;2023-05-21T08:48:50;97239.53;;;18.53;71.35
71938;BME280;59810;48.800;9.086;2023-05-21T08:51:16;97236.72;;;18.58;69.36
71938;BME280;59810;48.800;9.086;2023-05-21T08:53:41;97235.03;;;18.71;67.47
71938;BME280;59810;48.800;9.086;2023-05-21T08:56:08;97227.38;;;18.82;66.57
71938;BME280;59810;48.800;9.086;2023-05-21T08:58:35;97225.53;;;18.91;66.18
71938;BME280;59810;48.800;9.086;2023-05-21T09:01:02;97222.19;;;19.03;64.84
71938;BME280;59810;48.800;9.086;2023-05-21T09:03:29;97230.19;;;19.21;66.55
71938;BME280;59810;48.800;9.086;2023-05-21T09:05:56;97231.00;;;19.22;64.15
71938;BME280;59810;48.800;9.086;2023-05-21T09:08:26;97234.72;;;19.26;64.04
71938;BME280;59810;48.800;9.086;2023-05-21T09:10:53;97229.28;;;19.43;64.42
71938;BME280;59810;48.800;9.086;2023-05-21T09:13:19;97238.28;;;19.35;61.82
71938;BME280;59810;48.800;9.086;2023-05-21T09:15:46;97239.59;;;19.46;62.81
71938;BME280;59810;48.800;9.086;2023-05-21T09:18:12;97231.81;;;19.62;63.44
71938;BME280;59810;48.800;9.086;2023-05-21T09:20:38;97233.16;;;19.51;63.92
71938;BME280;59810;48.800;9.086;2023-05-21T09:23:05;97235.41;;;19.49;62.64
71938;BME280;59810;48.800;9.086;2023-05-21T09:25:37;97239.38;;;19.56;63.61
71938;BME280;59810;48.800;9.086;2023-05-21T09:28:16;97243.41;;;19.68;61.50
71938;BME280;59810;48.800;9.086;2023-05-21T09:30:46;97246.66;;;19.78;61.60
71938;BME280;59810;48.800;9.086;2023-05-21T09:33:23;97244.88;;;19.74;62.16
71938;BME280;59810;48.800;9.086;2023-05-21T09:35:49;97238.13;;;19.80;61.38
71938;BME280;59810;48.800;9.086;2023-05-21T09:38:15;97237.47;;;19.83;62.74
71938;BME280;59810;48.800;9.086;2023-05-21T09:40:44;97235.75;;;19.87;61.80
71938;BME280;59810;48.800;9.086;2023-05-21T09:43:13;97248.31;;;19.88;63.74
71938;BME280;59810;48.800;9.086;2023-05-21T09:45:54;97237.19;;;19.93;63.39
71938;BME280;59810;48.800;9.086;2023-05-21T09:48:39;97246.38;;;19.88;61.86
71938;BME280;59810;48.800;9.086;2023-05-21T09:51:16;97236.56;;;19.96;62.53
71938;BME280;59810;48.800;9.086;2023-05-21T09:53:50;97241.72;;;20.06;63.45
71938;BME280;59810;48.800;9.086;2023-05-21T09:56:19;97246.22;;;19.94;60.45
71938;BME280;59810;48.800;9.086;2023-05-21T09:58:47;97244.28;;;19.94;61.34
71938;BME280;59810;48.800;9.086;2023-05-21T10:01:15;97248.75;;;19.81;61.44
71938;BME280;59810;48.800;9.086;2023-05-21T10:03:41;97243.00;;;20.00;62.40
71938;BME280;59810;48.800;9.086;2023-05-21T10:06:11;97246.59;;;20.18;63.27
71938;BME280;59810;48.800;9.086;2023-05-21T10:08:41;97244.31;;;20.29;62.35
71938;BME280;59810;48.800;9.086;2023-05-21T10:11:11;97246.59;;;20.44;62.57
71938;BME280;59810;48.800;9.086;2023-05-21T10:13:39;97252.75;;;20.58;61.23
71938;BME280;59810;48.800;9.086;2023-05-21T10:16:05;97253.50;;;20.76;61.04
71938;BME280;59810;48.800;9.086;2023-05-21T10:18:32;97250.31;;;20.83;59.71
71938;BME280;59810;48.800;9.086;2023-05-21T10:21:00;97248.00;;;20.93;59.13
71938;BME280;59810;48.800;9.086;2023-05-21T10:23:26;97245.44;;;20.79;59.03
71938;BME280;59810;48.800;9.086;2023-05-21T10:25:54;97248.00;;;20.93;59.48
71938;BME280;59810;48.800;9.086;2023-05-21T10:28:23;97241.50;;;21.24;59.74
71938;BME280;59810;48.800;9.086;2023-05-21T10:30:50;97234.66;;;21.38;58.97
71938;BME280;59810;48.800;9.086;2023-05-21T10:33:16;97241.50;;;21.24;58.32
71938;BME280;59810;48.800;9.086;2023-05-21T10:35:43;97249.69;;;21.32;59.20
71938;BME280;59810;48.800;9.086;2023-05-21T10:38:10;97253.22;;;21.41;57.57
71938;BME280;59810;48.800;9.086;2023-05-21T10:40:37;97248.97;;;21.53;58.06
71938;BME280;59810;48.800;9.086;2023-05-21T10:49:10;97242.81;;;21.56;57.79
71938;BME280;59810;48.800;9.086;2023-05-21T10:54:55;97230.38;;;21.58;57.02
71938;BME280;59810;48.800;9.086;2023-05-21T11:00:27;97240.16;;;21.68;55.04
71938;BME280;59810;48.800;9.086;2023-05-21T11:02:56;97241.59;;;21.74;56.11
71938;BME280;59810;48.800;9.086;2023-05-21T11:05:38;97244.66;;;22.02;57.00
71938;BME280;59810;48.800;9.086;2023-05-21T11:08:24;97236.66;;;22.18;56.65
71938;BME280;59810;48.800;9.086;2023-05-21T11:10:56;97237.28;;;21.94;54.76
71938;BME280;59810;48.800;9.086;2023-05-21T11:13:26;97238.56;;;21.96;55.62
71938;BME280;59810;48.800;9.086;2023-05-21T11:21:16;97242.84;;;22.15;53.60
71938;BME280;59810;48.800;9.086;2023-05-21T11:26:20;97245.19;;;22.25;53.06
71938;BME280;59810;48.800;9.086;2023-05-21T11:29:10;97238.13;;;22.57;52.10
71938;BME280;59810;48.800;9.086;2023-05-21T11:31:35;97244.22;;;22.83;52.78
71938;BME280;59810;48.800;9.086;2023-05-21T11:36:39;97235.81;;;22.80;52.06
71938;BME280;59810;48.800;9.086;2023-05-21T11:39:24;97236.16;;;22.78;50.83
71938;BME280;59810;48.800;9.086;2023-05-21T11:47:07;97230.00;;;22.60;50.62
71938;BME280;59810;48.800;9.086;2023-05-21T11:49:33;97227.38;;;22.85;52.42
71938;BME280;59810;48.800;9.086;2023-05-21T11:51:59;97234.88;;;23.09;52.79
71938;BME280;59810;48.800;9.086;2023-05-21T11:54:26;97237.56;;;23.29;51.71
71938;BME280;59810;48.800;9.086;2023-05-21T11:56:53;97233.66;;;23.31;48.89
71938;BME280;59810;48.800;9.086;2023-05-21T11:59:19;97232.22;;;23.57;50.02
71938;BME280;59810;48.800;9.086;2023-05-21T12:01:44;97228.31;;;23.58;48.70
71938;BME280;59810;48.800;9.086;2023-05-21T12:04:11;97233.16;;;23.62;47.98
71938;BME280;59810;48.800;9.086;2023-05-21T12:06:38;97239.97;;;23.31;48.58
71938;BME280;59810;48.800;9.086;2023-05-21T12:09:09;97235.38;;;23.23;47.78
71938;BME280;59810;48.800;9.086;2023-05-21T12:11:37;97232.78;;;23.51;46.36
71938;BME280;59810;48.800;9.086;2023-05-21T12:14:13;97237.84;;;23.73;46.95
71938;BME280;59810;48.800;9.086;2023-05-21T12:16:39;97236.44;;;23.43;46.26
71938;BME280;59810;48.800;9.086;2023-05-21T12:19:05;97234.63;;;23.47;45.73
71938;BME280;59810;48.800;9.086;2023-05-21T12:21:31;97233.22;;;23.41;47.02
71938;BME280;59810;48.800;9.086;2023-05-21T12:23:59;97225.44;;;23.43;48.54
71938;BME280;59810;48.800;9.086;2023-05-21T12:26:25;97226.94;;;23.65;49.44
71938;BME280;59810;48.800;9.086;2023-05-21T12:28:54;97237.53;;;23.75;47.74
71938;BME280;59810;48.800;9.086;2023-05-21T12:31:21;97238.09;;;23.56;47.63
71938;BME280;59810;48.800;9.086;2023-05-21T12:33:52;97234.38;;;23.52;47.76
71938;BME280;59810;48.800;9.086;2023-05-21T12:36:30;97238.97;;;23.48;47.69
71938;BME280;59810;48.800;9.086;2023-05-21T12:39:02;97232.28;;;23.37;46.40
71938;BME280;59810;48.800;9.086;2023-05-21T12:41:28;97241.00;;;23.26;47.48
71938;BME280;59810;48.800;9.086;2023-05-21T12:43:53;97225.44;;;23.43;47.74
71938;BME280;59810;48.800;9.086;2023-05-21T12:46:22;97231.38;;;23.33;46.70
71938;BME280;59810;48.800;9.086;2023-05-21T12:48:54;97230.72;;;23.03;47.08
71938;BME280;59810;48.800;9.086;2023-05-21T12:51:22;97236.50;;;23.10;50.44
71938;BME280;59810;48.800;9.086;2023-05-21T12:53:47;97237.69;;;23.33;50.22
71938;BME280;59810;48.800;9.086;2023-05-21T12:56:14;97236.56;;;23.46;50.52
71938;BME280;59810;48.800;9.086;2023-05-21T12:58:40;97231.84;;;23.47;49.64
71938;BME280;59810;48.800;9.086;2023-05-21T13:01:06;97230.72;;;23.60;49.20
71938;BME280;59810;48.800;9.086;2023-05-21T13:03:32;97232.34;;;23.73;50.30
71938;BME280;59810;48.800;9.086;2023-05-21T13:05:58;97238.34;;;23.75;49.79
71938;BME280;59810;48.800;9.086;2023-05-21T13:08:23;97236.13;;;23.56;49.05
71938;BME280;59810;48.800;9.086;2023-05-21T13:10:49;97221.28;;;23.49;50.10
71938;BME280;59810;48.800;9.086;2023-05-21T13:13:14;97227.38;;;23.54;49.52
71938;BME280;59810;48.800;9.086;2023-05-21T13:15:40;97226.47;;;23.63;50.06
71938;BME280;59810;48.800;9.086;2023-05-21T13:18:05;97222.91;;;23.62;49.62
71938;BME280;59810;48.800;9.086;2023-05-21T13:20:30;97232.56;;;23.68;50.17
71938;BME280;59810;48.800;9.086;2023-05-21T13:22:56;97229.56;;;23.73;49.74
71938;BME280;59810;48.800;9.086;2023-05-21T13:25:25;97227.31;;;23.75;49.84
71938;BME280;59810;48.800;9.086;2023-05-21T13:27:54;97230.38;;;23.74;48.91
71938;BME280;59810;48.800;9.086;2023-05-21T13:30:21;97224.19;;;23.77;50.80
71938;BME280;59810;48.800;9.086;2023-05-21T13:32:47;97226.13;;;23.64;51.28